Time;durP1;ratioP1;P1;durP2;ratioP2;P2;SDS_P1;SDS_P2;PMS_P1;PMS_P2;Temp;Humidity;BMP_temperature;BMP_pressure;BME280_temperature;BME280_humidity;BME280_pressure;Samples;Min_cycle;Max_cycle;Signal;HPM_P1;HPM_P2
2020/12/26 00:02:02;;;;;;;19.37;8.40;;;;;;;1.78;96.35;102649.97;5049429;28;20067;-79
2020/12/26 00:04:28;;;;;;;12.83;5.97;;;;;;;2.14;95.03;102652.28;5059760;28;20282;-79
2020/12/26 00:06:53;;;;;;;8.82;3.97;;;;;;;2.45;94.28;102653.25;5024321;28;20280;-79
2020/12/26 00:09:18;;;;;;;6.60;2.65;;;;;;;2.69;94.40;102654.44;5047922;28;20044;-79
2020/12/26 00:11:44;;;;;;;12.83;2.40;;;;;;;2.73;94.43;102653.94;5059739;28;20047;-81
2020/12/26 00:14:09;;;;;;;7.45;2.20;;;;;;;2.77;94.61;102648.38;5036683;28;20035;-80
2020/12/26 00:16:35;;;;;;;7.78;2.88;;;;;;;2.85;94.53;102644.81;5041342;28;20025;-81
2020/12/26 00:19:00;;;;;;;10.93;2.30;;;;;;;2.75;94.53;102648.25;5065060;22;20529;-77
2020/12/26 00:21:25;;;;;;;6.67;2.77;;;;;;;2.60;94.78;102639.34;5044411;28;20119;-76
2020/12/26 00:23:51;;;;;;;2.88;1.75;;;;;;;2.58;94.97;102634.88;5046054;28;20288;-78
2020/12/26 00:26:17;;;;;;;7.00;2.00;;;;;;;2.65;95.37;102637.19;5048487;28;20166;-78
2020/12/26 00:28:42;;;;;;;4.72;1.80;;;;;;;2.60;95.44;102626.66;5056477;28;20279;-78
2020/12/26 00:31:12;;;;;;;4.00;1.75;;;;;;;2.64;95.66;102635.41;5028826;28;20021;-77
2020/12/26 00:33:37;;;;;;;5.43;1.47;;;;;;;2.60;95.60;102631.75;5020080;28;20164;-77
2020/12/26 00:36:02;;;;;;;4.30;1.50;;;;;;;2.59;96.07;102634.13;5037165;28;20096;-76
2020/12/26 00:38:27;;;;;;;11.03;1.60;;;;;;;2.58;95.81;102634.88;5018491;28;20298;-76
2020/12/26 00:40:53;;;;;;;3.78;1.42;;;;;;;2.56;96.02;102633.88;5024529;28;20028;-77
2020/12/26 00:43:18;;;;;;;4.63;1.50;;;;;;;2.53;96.53;102631.06;5049909;28;20048;-78
2020/12/26 00:45:44;;;;;;;3.63;1.60;;;;;;;2.52;96.28;102629.28;5052019;28;20337;-78
2020/12/26 00:48:09;;;;;;;3.85;1.30;;;;;;;2.49;96.44;102632.47;5036374;28;20028;-77
2020/12/26 00:50:34;;;;;;;8.17;1.57;;;;;;;2.46;96.41;102628.03;5040706;28;20018;-78
2020/12/26 00:52:59;;;;;;;5.07;1.30;;;;;;;2.47;96.68;102631.44;5026925;28;20283;-77
2020/12/26 00:55:25;;;;;;;4.55;2.08;;;;;;;2.46;96.73;102633.09;5044488;28;20106;-77
2020/12/26 00:57:50;;;;;;;3.30;1.50;;;;;;;2.45;96.64;102631.31;5039046;28;20048;-78
2020/12/26 01:00:15;;;;;;;7.17;2.10;;;;;;;2.41;96.61;102636.91;5039517;28;20025;-78
2020/12/26 01:02:41;;;;;;;3.72;1.63;;;;;;;2.38;96.71;102623.06;5034162;28;20271;-77
2020/12/26 01:05:06;;;;;;;5.37;1.57;;;;;;;2.33;96.67;102620.16;5045358;28;20521;-78
2020/12/26 01:07:31;;;;;;;7.60;1.98;;;;;;;2.34;96.68;102624.47;5025452;28;20279;-78
2020/12/26 01:09:57;;;;;;;5.60;1.95;;;;;;;2.36;96.64;102617.88;5041267;28;20475;-77
2020/12/26 01:12:22;;;;;;;7.18;1.75;;;;;;;2.33;96.79;102614.19;5038726;28;20032;-77
2020/12/26 01:14:47;;;;;;;6.50;1.95;;;;;;;2.33;96.61;102616.72;5047342;28;20029;-76
2020/12/26 01:17:14;;;;;;;7.53;2.33;;;;;;;2.29;96.21;102613.03;5016382;28;20049;-77
2020/12/26 01:19:39;;;;;;;7.33;1.90;;;;;;;2.30;96.01;102617.34;5042255;28;20060;-77
2020/12/26 01:22:05;;;;;;;5.50;1.47;;;;;;;2.27;95.84;102608.56;5045226;28;20479;-78
2020/12/26 01:24:30;;;;;;;7.57;1.88;;;;;;;2.24;96.05;102611.72;5040535;28;20025;-78
2020/12/26 01:26:55;;;;;;;7.30;2.27;;;;;;;2.22;95.79;102609.81;5028886;28;20115;-76
2020/12/26 01:29:21;;;;;;;7.30;2.43;;;;;;;2.22;95.35;102603.09;5042252;28;20020;-77
2020/12/26 01:31:53;;;;;;;10.50;2.22;;;;;;;2.26;95.27;102606.78;5031586;28;20321;-76
2020/12/26 01:34:20;;;;;;;7.53;2.13;;;;;;;2.27;95.18;102599.31;5050290;28;20039;-76
2020/12/26 01:36:49;;;;;;;7.50;2.13;;;;;;;2.36;95.10;102602.66;5021975;28;20028;-77
2020/12/26 01:39:15;;;;;;;6.20;1.77;;;;;;;2.29;94.52;102592.75;5035222;28;20035;-78
2020/12/26 01:41:40;;;;;;;4.15;1.65;;;;;;;2.31;94.42;102598.84;5032698;28;20033;-77
2020/12/26 01:44:06;;;;;;;5.43;1.83;;;;;;;2.31;94.17;102588.69;5024268;28;20033;-77
2020/12/26 01:46:32;;;;;;;7.47;1.90;;;;;;;2.31;94.02;102590.34;5036458;28;20336;-77
2020/12/26 01:48:59;;;;;;;;;;;;;;;2.48;93.32;102593.53;5052742;28;20035;-76
2020/12/26 01:51:26;;;;;;;3.55;1.85;;;;;;;2.57;92.66;102584.91;5034262;28;19920;-77
2020/12/26 01:53:52;;;;;;;7.43;1.50;;;;;;;2.55;92.71;102584.78;5032556;28;20025;-77
2020/12/26 01:56:18;;;;;;;6.13;1.70;;;;;;;2.62;91.90;102576.06;5038828;28;20453;-77
2020/12/26 01:58:43;;;;;;;7.20;1.50;;;;;;;2.60;91.75;102587.69;5021069;28;20025;-77
2020/12/26 02:01:11;;;;;;;4.72;1.33;;;;;;;2.61;91.43;102584.44;5045222;28;20068;-76
2020/12/26 02:03:40;;;;;;;4.53;1.20;;;;;;;2.56;91.79;102573.88;5045851;28;20024;-77
2020/12/26 02:06:06;;;;;;;9.50;1.60;;;;;;;2.64;90.89;102577.06;5023627;28;20028;-78
2020/12/26 02:08:32;;;;;;;9.13;1.40;;;;;;;2.50;91.11;102586.94;5030818;28;20021;-77
2020/12/26 02:10:57;;;;;;;3.75;1.13;;;;;;;2.48;91.16;102590.09;5019375;28;20044;-78
2020/12/26 02:13:23;;;;;;;9.25;1.27;;;;;;;2.42;91.18;102587.06;5021561;28;20078;-77
2020/12/26 02:16:02;;;;;;;4.82;1.58;;;;;;;2.47;90.83;102576.53;5030140;28;20375;-77
2020/12/26 02:18:28;;;;;;;9.90;2.43;;;;;;;2.53;89.96;102575.25;5044544;28;20487;-77
2020/12/26 02:20:53;;;;;;;9.67;1.60;;;;;;;2.50;90.46;102575.91;5049232;28;20032;-77
2020/12/26 02:23:19;;;;;;;10.10;1.20;;;;;;;2.47;90.35;102570.56;5042807;28;20280;-77
2020/12/26 02:25:44;;;;;;;6.63;1.33;;;;;;;2.44;89.86;102576.28;5045008;28;20279;-76
2020/12/26 02:28:10;;;;;;;5.20;1.35;;;;;;;2.35;90.12;102569.56;5033593;28;20024;-77
2020/12/26 02:30:38;;;;;;;4.00;1.10;;;;;;;2.36;90.53;102567.16;5041047;28;20017;-77
2020/12/26 02:33:04;;;;;;;3.43;1.30;;;;;;;2.43;90.23;102553.31;5040461;28;20022;-77
2020/12/26 02:35:29;;;;;;;4.32;0.90;;;;;;;2.36;90.03;102544.31;5039887;28;20074;-78
2020/12/26 02:37:54;;;;;;;9.40;1.30;;;;;;;2.27;90.31;102551.13;5048038;28;20021;-76
2020/12/26 02:40:20;;;;;;;7.37;1.13;;;;;;;2.21;90.19;102537.06;5016376;28;20084;-77
2020/12/26 02:42:45;;;;;;;3.13;1.30;;;;;;;2.20;90.68;102528.56;5027979;28;20366;-76
2020/12/26 02:45:10;;;;;;;3.93;1.13;;;;;;;2.14;90.52;102517.91;5020183;28;20402;-77
2020/12/26 02:47:35;;;;;;;15.03;1.27;;;;;;;2.11;90.74;102512.59;5038783;28;20304;-77
2020/12/26 02:50:01;;;;;;;4.17;1.20;;;;;;;2.12;91.17;102509.28;5026838;28;20280;-76
2020/12/26 02:52:26;;;;;;;5.67;1.10;;;;;;;2.11;91.14;102503.34;5038631;28;20030;-78
2020/12/26 02:54:51;;;;;;;8.10;1.87;;;;;;;2.11;90.87;102493.19;5027779;28;20637;-77
2020/12/26 02:57:16;;;;;;;6.50;1.30;;;;;;;2.22;90.07;102486.47;5043593;28;20271;-76
2020/12/26 02:59:42;;;;;;;7.30;1.27;;;;;;;2.15;90.16;102477.47;5025121;28;20018;-77
2020/12/26 03:02:07;;;;;;;3.93;1.13;;;;;;;2.09;90.42;102468.50;5033171;28;20784;-77
2020/12/26 03:04:32;;;;;;;3.22;1.15;;;;;;;2.05;90.57;102459.75;5046699;28;20036;-76
2020/12/26 03:06:57;;;;;;;4.80;1.17;;;;;;;2.09;90.34;102458.34;5016850;28;20491;-77
2020/12/26 03:09:23;;;;;;;3.17;1.30;;;;;;;2.05;90.39;102452.13;5038726;28;20017;-77
2020/12/26 03:11:48;;;;;;;3.27;1.13;;;;;;;2.04;90.46;102459.63;5041104;28;20761;-76
2020/12/26 03:14:13;;;;;;;3.30;1.03;;;;;;;2.05;91.04;102442.00;5039697;28;20792;-76
2020/12/26 03:16:39;;;;;;;5.43;1.30;;;;;;;2.07;91.37;102443.00;5040099;28;20275;-77
2020/12/26 03:19:04;;;;;;;5.18;1.15;;;;;;;2.12;91.81;102429.06;5025990;28;20487;-78
2020/12/26 03:21:30;;;;;;;8.25;1.80;;;;;;;2.14;92.05;102437.69;5042189;28;20029;-77
2020/12/26 03:23:55;;;;;;;4.53;1.20;;;;;;;2.10;92.16;102439.84;5020143;28;20499;-77
2020/12/26 03:26:20;;;;;;;4.37;1.63;;;;;;;2.05;92.45;102433.50;5026092;28;20271;-78
2020/12/26 03:28:45;;;;;;;4.77;1.00;;;;;;;2.08;92.35;102436.28;5019562;28;20013;-77
2020/12/26 03:31:12;;;;;;;9.70;1.63;;;;;;;2.04;91.93;102444.41;5042936;28;20414;-77
2020/12/26 03:33:37;;;;;;;3.87;1.20;;;;;;;2.03;91.73;102456.19;5024276;28;20016;-77
2020/12/26 03:36:03;;;;;;;8.13;1.20;;;;;;;1.99;91.54;102455.81;5045202;28;20083;-77
2020/12/26 03:38:28;;;;;;;6.10;1.57;;;;;;;1.97;91.75;102459.88;5042818;28;20279;-77
2020/12/26 03:40:53;;;;;;;4.93;0.90;;;;;;;1.92;91.92;102453.50;5023753;28;20307;-77
2020/12/26 03:43:18;;;;;;;8.47;2.33;;;;;;;1.97;91.85;102448.09;5025305;28;20462;-77
2020/12/26 03:45:44;;;;;;;5.05;1.00;;;;;;;1.92;92.14;102456.91;5036983;28;20031;-77
2020/12/26 03:48:09;;;;;;;4.65;0.82;;;;;;;1.98;92.12;102448.97;5042052;28;20449;-77
2020/12/26 03:50:34;;;;;;;2.40;0.80;;;;;;;2.04;91.79;102454.53;5021413;28;20498;-76
2020/12/26 03:52:59;;;;;;;8.30;0.80;;;;;;;2.01;92.12;102446.69;5026222;28;20283;-77
2020/12/26 03:55:25;;;;;;;6.73;1.33;;;;;;;2.03;92.39;102460.38;5024478;28;20057;-77
2020/12/26 03:57:50;;;;;;;4.97;1.03;;;;;;;2.04;92.45;102452.91;5044643;28;20298;-78
2020/12/26 04:00:15;;;;;;;5.88;0.90;;;;;;;2.11;92.66;102449.22;5028906;28;20025;-77
2020/12/26 04:02:41;;;;;;;13.70;1.93;;;;;;;2.15;92.30;102446.19;5028223;28;20025;-76
2020/12/26 04:05:06;;;;;;;8.13;1.20;;;;;;;2.18;92.18;102438.81;5044259;28;20033;-77
2020/12/26 04:07:31;;;;;;;6.03;1.40;;;;;;;2.10;92.24;102445.81;5030507;28;20047;-77
2020/12/26 04:09:57;;;;;;;4.30;0.97;;;;;;;2.10;92.29;102429.69;5027504;28;20751;-77
2020/12/26 04:12:22;;;;;;;6.10;1.50;;;;;;;2.16;92.17;102423.50;5030554;28;20679;-77
2020/12/26 04:14:47;;;;;;;8.57;1.93;;;;;;;2.25;91.54;102432.59;5037039;28;20341;-77
2020/12/26 04:17:12;;;;;;;8.70;1.20;;;;;;;2.16;91.66;102435.28;5033416;28;20032;-76
2020/12/26 04:19:38;;;;;;;4.77;1.00;;;;;;;2.12;91.68;102435.78;5024768;28;20334;-77
2020/12/26 04:22:03;;;;;;;4.67;1.70;;;;;;;2.13;91.90;102428.31;5037324;28;20041;-78
2020/12/26 04:24:28;;;;;;;2.88;0.82;;;;;;;2.18;91.83;102416.00;5025118;28;20017;-78
2020/12/26 04:26:54;;;;;;;7.30;1.35;;;;;;;2.20;91.21;102419.56;5050878;28;20029;-78
2020/12/26 04:29:21;;;;;;;6.85;1.00;;;;;;;2.24;91.46;102406.38;5028669;28;20028;-77
2020/12/26 04:31:48;;;;;;;8.93;1.10;;;;;;;2.37;91.05;102413.34;5030682;28;20027;-77
2020/12/26 04:34:14;;;;;;;5.40;1.00;;;;;;;2.42;91.11;102412.06;5036849;28;20032;-77
2020/12/26 04:36:39;;;;;;;9.45;1.75;;;;;;;2.43;91.08;102411.31;5052272;28;20025;-77
2020/12/26 04:39:04;;;;;;;7.00;0.90;;;;;;;2.38;91.09;102408.41;5052318;28;20063;-77
2020/12/26 04:41:32;;;;;;;3.00;0.80;;;;;;;2.37;91.49;102399.00;5029887;28;20590;-77
2020/12/26 04:44:00;;;;;;;8.40;1.07;;;;;;;2.32;91.47;102400.28;5039593;28;20535;-77
2020/12/26 04:46:26;;;;;;;3.10;0.60;;;;;;;2.26;91.56;102392.16;5041712;28;20049;-77
2020/12/26 04:49:01;;;;;;;5.53;1.13;;;;;;;2.40;91.65;102384.03;5024472;28;20029;-78
2020/12/26 04:51:26;;;;;;;7.63;1.20;;;;;;;2.33;91.82;102379.25;5045496;28;20025;-77
2020/12/26 04:53:52;;;;;;;3.83;0.73;;;;;;;2.37;91.94;102378.72;5026160;28;20104;-77
2020/12/26 04:56:20;;;;;;;5.97;1.05;;;;;;;2.38;91.97;102362.75;5045265;28;20044;-77
2020/12/26 04:58:48;;;;;;;6.00;1.17;;;;;;;2.46;91.89;102371.84;5021721;28;20025;-76
2020/12/26 05:01:15;;;;;;;3.33;1.07;;;;;;;2.51;92.06;102369.69;5027267;28;20102;-78
2020/12/26 05:03:40;;;;;;;3.27;0.93;;;;;;;2.56;92.33;102372.59;5028271;28;20034;-78
2020/12/26 05:06:06;;;;;;;6.70;1.25;;;;;;;2.56;92.03;102367.50;5026051;28;20036;-77
2020/12/26 05:08:32;;;;;;;5.45;1.20;;;;;;;2.54;91.99;102374.09;5038213;28;20137;-76
2020/12/26 05:10:59;;;;;;;4.50;0.97;;;;;;;2.53;91.98;102364.72;5026473;28;20403;-78
2020/12/26 05:13:24;;;;;;;3.57;0.90;;;;;;;2.52;92.02;102356.22;5040540;28;20025;-79
2020/12/26 05:15:52;;;;;;;5.05;1.20;;;;;;;2.61;91.61;102362.06;5041903;28;20017;-77
2020/12/26 05:18:18;;;;;;;3.87;1.20;;;;;;;2.58;91.55;102361.78;5026262;28;20037;-77
2020/12/26 05:20:44;;;;;;;2.83;1.10;;;;;;;2.70;91.08;102355.19;5042075;28;20025;-75
2020/12/26 05:23:10;;;;;;;7.30;1.17;;;;;;;2.70;90.50;102357.72;5021665;28;20026;-77
2020/12/26 05:25:48;;;;;;;;;;;;;;;2.64;90.88;102348.75;5034793;28;20482;-77
2020/12/26 05:28:17;;;;;;;6.90;0.80;;;;;;;2.58;91.21;102353.28;5019797;28;19913;-77
2020/12/26 05:30:44;;;;;;;3.50;0.80;;;;;;;2.56;91.54;102362.44;5039385;28;20025;-77
2020/12/26 05:33:10;;;;;;;5.27;1.10;;;;;;;2.63;91.82;102357.13;5038200;28;20555;-78
2020/12/26 05:35:43;;;;;;;2.07;0.90;;;;;;;2.62;91.91;102357.88;5043188;28;20083;-78
2020/12/26 05:38:17;;;;;;;3.13;1.10;;;;;;;2.71;91.80;102358.59;5024136;28;20029;-76
2020/12/26 05:40:49;;;;;;;9.60;1.43;;;;;;;2.79;91.38;102355.00;5044789;28;20479;-77
2020/12/26 05:43:17;;;;;;;6.07;1.00;;;;;;;2.90;91.11;102350.78;5025611;28;20029;-76
2020/12/26 05:45:43;;;;;;;7.17;1.20;;;;;;;2.79;91.30;102347.41;5028818;28;20032;-77
2020/12/26 05:48:14;;;;;;;3.03;0.90;;;;;;;2.71;91.51;102351.00;5042389;28;20368;-77
2020/12/26 05:50:40;;;;;;;7.77;1.33;;;;;;;2.75;91.40;102358.06;5042569;28;20450;-76
2020/12/26 05:53:07;;;;;;;13.53;2.47;;;;;;;2.74;91.79;102361.38;5030059;28;20019;-77
2020/12/26 05:55:41;;;;;;;8.80;1.73;;;;;;;2.84;91.72;102360.44;5021543;28;20037;-78
2020/12/26 05:58:06;;;;;;;3.87;1.30;;;;;;;2.91;91.53;102361.03;5046700;28;20068;-77
2020/12/26 06:00:34;;;;;;;4.32;1.27;;;;;;;2.92;91.32;102345.03;5044782;28;20068;-77
2020/12/26 06:03:18;;;;;;;4.07;1.10;;;;;;;3.05;90.97;102345.25;5045618;28;20120;-78
2020/12/26 06:05:46;;;;;;;9.20;1.53;;;;;;;3.00;91.20;102343.13;5030547;28;20053;-77
2020/12/26 06:08:13;;;;;;;8.57;1.20;;;;;;;3.04;90.98;102334.97;5044089;28;20560;-77
2020/12/26 06:10:40;;;;;;;5.90;1.50;;;;;;;3.05;90.60;102335.09;5022372;28;20024;-78
2020/12/26 06:13:05;;;;;;;10.37;2.20;;;;;;;3.04;91.12;102338.41;5025140;28;20037;-77
2020/12/26 06:15:32;;;;;;;9.40;1.00;;;;;;;3.13;90.64;102330.59;5033246;28;20478;-77
2020/12/26 06:17:59;;;;;;;;;;;;;;;3.09;90.77;102334.56;5022001;28;20079;-77
2020/12/26 06:20:24;;;;;;;7.22;1.45;;;;;;;3.06;90.98;102329.25;5097722;23;19923;-81
2020/12/26 06:22:50;;;;;;;9.57;1.35;;;;;;;3.11;91.33;102340.66;5122768;28;20039;-81
2020/12/26 06:25:21;;;;;;;5.27;1.40;;;;;;;3.12;90.90;102333.91;5102211;28;20480;-82
2020/12/26 06:27:52;;;;;;;7.97;1.63;;;;;;;3.19;90.17;102330.19;5102676;28;20091;-81
2020/12/26 06:30:19;;;;;;;8.33;1.63;;;;;;;3.20;90.61;102337.03;5106688;28;20028;-82
2020/12/26 06:32:46;;;;;;;6.10;1.70;;;;;;;3.22;90.13;102331.31;5092473;28;20024;-81
2020/12/26 06:35:13;;;;;;;7.70;1.90;;;;;;;3.19;90.33;102323.44;5104588;28;20038;-81
2020/12/26 06:37:38;;;;;;;5.80;1.43;;;;;;;3.22;90.62;102321.16;5085747;28;20031;-82
2020/12/26 06:40:36;;;;;;;4.97;1.45;;;;;;;3.25;90.63;102318.88;5099802;28;20447;-81
2020/12/26 06:43:02;;;;;;;4.30;1.80;;;;;;;3.17;91.06;102321.56;5045579;28;20032;-82
2020/12/26 06:45:37;;;;;;;8.07;2.08;;;;;;;3.19;91.04;102320.91;5091726;28;20027;-82
2020/12/26 06:48:03;;;;;;;5.23;1.27;;;;;;;3.12;91.20;102319.56;5104086;28;20035;-82
2020/12/26 06:50:33;;;;;;;11.00;2.30;;;;;;;3.12;91.54;102314.50;5126145;28;20015;-82
2020/12/26 06:53:00;;;;;;;5.43;1.97;;;;;;;3.29;91.03;102322.53;5087068;28;20040;-81
2020/12/26 06:55:42;;;;;;;8.03;1.80;;;;;;;3.26;90.92;102324.84;5086127;28;20020;-81
2020/12/26 06:58:11;;;;;;;8.60;2.07;;;;;;;3.31;90.29;102329.50;5106947;28;20028;-80
2020/12/26 07:00:37;;;;;;;9.67;2.13;;;;;;;3.31;90.54;102329.50;5100523;28;20483;-82
2020/12/26 07:03:19;;;;;;;7.00;2.10;;;;;;;3.33;90.53;102332.16;5103301;28;20057;-81
2020/12/26 07:05:45;;;;;;;7.60;2.30;;;;;;;3.34;91.06;102318.69;5110360;28;20027;-81
2020/12/26 07:08:32;;;;;;;9.03;2.77;;;;;;;3.35;90.98;102323.00;5087342;28;20034;-82
2020/12/26 07:10:59;;;;;;;9.20;3.03;;;;;;;3.30;90.82;102325.19;5104716;28;20052;-80
2020/12/26 07:13:45;;;;;;;11.13;3.47;;;;;;;3.42;90.48;102327.75;5118016;28;20027;-81
2020/12/26 07:16:47;;;;;;;6.63;2.63;;;;;;;3.32;91.08;102326.19;5097539;28;20364;-80
2020/12/26 07:19:42;;;;;;;8.90;2.90;;;;;;;3.38;90.84;102310.53;5107167;28;20076;-82
2020/12/26 07:22:13;;;;;;;7.30;2.93;;;;;;;3.34;90.87;102306.88;5085291;28;20051;-82
2020/12/26 07:24:43;;;;;;;8.50;3.33;;;;;;;3.35;91.05;102307.75;5112499;28;20020;-80
2020/12/26 07:27:13;;;;;;;6.13;3.17;;;;;;;3.33;91.37;102315.25;5102937;28;20485;-82
2020/12/26 07:30:05;;;;;;;8.97;3.17;;;;;;;3.27;91.60;102313.91;5104457;28;20038;-81
2020/12/26 07:32:37;;;;;;;12.03;4.27;;;;;;;3.25;92.00;102315.41;5103731;28;20028;-80
2020/12/26 07:35:05;;;;;;;6.53;3.63;;;;;;;3.26;92.17;102307.94;5104255;28;20051;-80
2020/12/26 07:37:31;;;;;;;13.40;4.10;;;;;;;3.32;92.16;102292.28;5101964;28;20035;-81
2020/12/26 07:39:57;;;;;;;15.27;4.47;;;;;;;3.30;92.29;102283.66;5106492;28;20024;-81
2020/12/26 07:42:22;;;;;;;8.27;4.18;;;;;;;3.27;92.77;102291.94;5106122;28;20054;-81
2020/12/26 07:44:48;;;;;;;18.77;4.45;;;;;;;3.25;92.50;102282.41;5094749;28;20119;-80
2020/12/26 07:47:14;;;;;;;13.60;4.78;;;;;;;3.20;92.96;102283.72;5099206;28;20020;-80
2020/12/26 07:49:40;;;;;;;9.65;4.43;;;;;;;3.22;92.99;102284.72;5086013;28;20031;-81
2020/12/26 07:52:07;;;;;;;13.13;4.97;;;;;;;3.25;93.12;102290.03;5116916;28;20020;-81
2020/12/26 07:54:33;;;;;;;8.40;4.57;;;;;;;3.29;93.09;102281.91;5084049;28;20042;-81
2020/12/26 07:56:59;;;;;;;11.38;5.05;;;;;;;3.32;93.00;102280.47;5101099;28;20040;-80
2020/12/26 07:59:25;;;;;;;8.65;4.70;;;;;;;3.30;92.79;102268.44;5103358;28;20095;-81
2020/12/26 08:01:51;;;;;;;10.68;4.25;;;;;;;3.32;93.00;102266.88;5100084;28;20032;-82
2020/12/26 08:04:17;;;;;;;10.13;4.43;;;;;;;3.26;93.08;102271.50;5103683;28;20015;-80
2020/12/26 08:06:44;;;;;;;7.47;4.60;;;;;;;3.31;93.38;102265.13;5103457;28;20019;-80
2020/12/26 08:09:11;;;;;;;9.37;3.97;;;;;;;3.39;92.69;102264.03;5100991;28;20042;-79
2020/12/26 08:11:36;;;;;;;14.70;5.10;;;;;;;3.35;92.63;102262.03;5103972;28;20020;-80
2020/12/26 08:14:02;;;;;;;6.70;4.33;;;;;;;3.40;92.20;102253.09;5083880;28;20032;-81
2020/12/26 08:16:29;;;;;;;10.80;5.03;;;;;;;3.38;92.53;102254.66;5091784;28;20305;-81
2020/12/26 08:18:54;;;;;;;12.43;4.53;;;;;;;3.48;92.33;102246.94;5125581;28;20035;-82
2020/12/26 08:21:22;;;;;;;9.15;4.80;;;;;;;3.48;92.69;102249.47;5123737;28;20489;-82
2020/12/26 08:23:59;;;;;;;14.60;5.37;;;;;;;3.51;92.75;102229.38;5117439;28;20031;-80
2020/12/26 08:26:26;;;;;;;9.57;4.82;;;;;;;3.53;92.69;102232.03;5105882;28;20065;-80
2020/12/26 08:28:55;;;;;;;11.60;4.80;;;;;;;3.58;92.36;102225.66;5108642;28;20703;-80
2020/12/26 08:31:22;;;;;;;11.60;5.30;;;;;;;3.56;92.36;102222.97;5086031;28;20020;-82
2020/12/26 08:33:53;;;;;;;10.87;4.40;;;;;;;3.68;91.99;102228.97;5098427;28;20039;-83
2020/12/26 08:36:31;;;;;;;11.53;4.30;;;;;;;3.68;91.81;102218.81;5109524;28;20080;-79
2020/12/26 08:38:59;;;;;;;7.80;4.30;;;;;;;3.66;91.24;102220.34;5100463;28;20023;-79
2020/12/26 08:41:25;;;;;;;8.00;3.80;;;;;;;3.67;91.18;102221.25;5109523;28;20032;-80
2020/12/26 08:43:51;;;;;;;11.33;5.70;;;;;;;3.68;91.27;102228.09;5123130;28;20043;-79
2020/12/26 08:46:19;;;;;;;10.40;5.07;;;;;;;3.68;91.16;102228.09;5123554;28;20023;-78
2020/12/26 08:48:45;;;;;;;10.37;3.70;;;;;;;3.73;90.88;102227.66;5115623;28;20074;-78
2020/12/26 08:51:22;;;;;;;11.68;3.83;;;;;;;3.72;90.95;102225.88;5116588;28;20631;-78
2020/12/26 08:53:48;;;;;;;11.25;4.28;;;;;;;3.70;91.09;102221.47;5101593;28;20020;-78
2020/12/26 08:56:14;;;;;;;8.17;3.30;;;;;;;3.70;90.35;102217.25;5120073;28;20026;-79
2020/12/26 08:58:48;;;;;;;5.78;3.13;;;;;;;3.71;89.57;102213.94;5105497;28;20024;-78
2020/12/26 09:01:13;;;;;;;7.30;2.97;;;;;;;3.74;89.76;102216.72;5124380;28;20362;-78
2020/12/26 09:03:38;;;;;;;10.13;3.55;;;;;;;3.74;90.15;102219.25;5088743;28;20028;-79
2020/12/26 09:06:04;;;;;;;5.93;3.70;;;;;;;3.69;89.56;102210.41;5085296;28;20040;-79
2020/12/26 09:08:30;;;;;;;9.55;3.17;;;;;;;3.77;89.25;102213.50;5085371;28;20274;-78
2020/12/26 09:11:06;;;;;;;10.27;3.42;;;;;;;3.72;89.63;102209.75;5102512;28;20103;-79
2020/12/26 09:13:33;;;;;;;6.05;3.05;;;;;;;3.72;89.61;102205.56;5106522;28;20024;-80
2020/12/26 09:16:07;;;;;;;8.30;2.93;;;;;;;3.72;89.79;102215.72;5105932;28;20452;-80
2020/12/26 09:18:45;;;;;;;7.10;2.77;;;;;;;3.72;89.71;102208.09;5103427;28;20035;-78
2020/12/26 09:21:28;;;;;;;8.63;2.90;;;;;;;3.71;89.33;102208.88;5089584;28;21108;-80
2020/12/26 09:23:57;;;;;;;9.57;3.43;;;;;;;3.74;88.96;102196.38;5116163;28;20056;-79
2020/12/26 09:26:25;;;;;;;6.37;2.20;;;;;;;3.80;89.37;102193.38;5119023;28;20027;-78
2020/12/26 09:29:03;;;;;;;6.77;2.27;;;;;;;3.74;88.43;102188.75;5114556;28;20020;-79
2020/12/26 09:31:30;;;;;;;8.03;2.47;;;;;;;3.78;88.60;102186.44;5108460;28;20024;-79
2020/12/26 09:33:58;;;;;;;8.30;2.30;;;;;;;3.81;88.80;102187.53;5096636;28;20092;-77
2020/12/26 09:36:26;;;;;;;7.50;2.53;;;;;;;3.81;89.16;102199.34;5092995;28;20087;-79
2020/12/26 09:38:53;;;;;;;8.40;2.47;;;;;;;3.88;89.27;102184.66;5112118;28;20736;-79
2020/12/26 09:41:23;;;;;;;9.23;2.40;;;;;;;3.92;89.25;102183.25;5092472;28;20083;-79
2020/12/26 09:43:51;;;;;;;8.30;2.37;;;;;;;3.90;88.96;102194.94;5106075;28;20048;-78
2020/12/26 09:46:18;;;;;;;10.17;2.67;;;;;;;3.94;88.55;102184.22;5110440;28;20042;-79
2020/12/26 09:48:44;;;;;;;6.13;2.30;;;;;;;3.98;88.76;102183.69;5092564;28;20070;-80
2020/12/26 09:51:12;;;;;;;3.87;2.17;;;;;;;4.06;88.82;102178.34;5096963;28;20023;-80
2020/12/26 09:53:38;;;;;;;8.33;2.80;;;;;;;4.04;88.64;102173.94;5100473;28;20039;-79
2020/12/26 09:56:05;;;;;;;6.47;2.13;;;;;;;4.05;87.73;102170.63;5106050;28;20485;-78
2020/12/26 09:58:31;;;;;;;11.10;2.67;;;;;;;4.07;88.00;102169.06;5091599;28;20305;-79
2020/12/26 10:00:56;;;;;;;9.75;2.97;;;;;;;4.03;88.11;102177.25;5096756;28;20058;-79
2020/12/26 10:03:21;;;;;;;5.90;2.40;;;;;;;3.99;88.35;102170.19;5097826;28;20020;-80
2020/12/26 10:05:46;;;;;;;12.77;3.47;;;;;;;4.06;87.89;102167.31;5089149;28;20481;-78
2020/12/26 10:08:12;;;;;;;5.90;2.37;;;;;;;4.10;87.48;102169.28;5091339;28;20272;-80
2020/12/26 10:10:37;;;;;;;11.17;2.53;;;;;;;4.07;87.96;102158.91;5101043;28;20072;-80
2020/12/26 10:13:02;;;;;;;7.27;2.87;;;;;;;4.10;87.91;102163.31;5112072;28;20028;-81
2020/12/26 10:15:28;;;;;;;9.53;2.73;;;;;;;4.14;88.08;102152.56;5092331;28;20297;-78
2020/12/26 10:17:53;;;;;;;10.43;3.22;;;;;;;4.22;88.64;102137.06;5098617;28;20024;-79
2020/12/26 10:20:18;;;;;;;8.60;3.25;;;;;;;4.27;87.84;102148.47;5089035;28;20053;-80
2020/12/26 10:22:44;;;;;;;9.20;2.90;;;;;;;4.28;87.26;102142.59;5080207;28;20089;-80
2020/12/26 10:25:09;;;;;;;8.40;3.08;;;;;;;4.35;87.77;102137.16;5098430;28;20028;-78
2020/12/26 10:27:34;;;;;;;6.97;3.30;;;;;;;4.42;87.70;102132.50;5081440;28;20093;-78
2020/12/26 10:29:59;;;;;;;9.17;2.83;;;;;;;4.29;87.53;102126.56;5082814;28;20270;-79
2020/12/26 10:32:24;;;;;;;8.27;2.80;;;;;;;4.25;86.99;102131.34;5087993;28;20036;-80
2020/12/26 10:34:50;;;;;;;9.93;3.37;;;;;;;4.25;86.95;102127.13;5086707;28;20023;-81
2020/12/26 10:37:16;;;;;;;9.73;2.93;;;;;;;4.14;87.75;102129.69;5101629;28;20270;-78
2020/12/26 10:39:42;;;;;;;14.68;3.63;;;;;;;4.07;88.17;102120.75;5117602;28;20111;-79
2020/12/26 10:42:08;;;;;;;13.93;3.63;;;;;;;4.14;88.08;102122.94;5087261;28;20049;-81
2020/12/26 10:44:33;;;;;;;12.02;3.95;;;;;;;4.16;87.99;102125.59;5089808;28;20023;-80
2020/12/26 10:46:58;;;;;;;5.50;2.83;;;;;;;4.20;87.39;102115.75;5099212;28;20088;-79
2020/12/26 10:49:23;;;;;;;7.57;3.83;;;;;;;4.25;87.83;102116.09;5081644;28;20943;-80
2020/12/26 10:51:49;;;;;;;8.27;3.60;;;;;;;4.33;87.52;102113.28;5119213;28;20019;-77
2020/12/26 10:54:14;;;;;;;12.05;4.07;;;;;;;4.32;87.91;102103.00;5106595;28;20361;-78
2020/12/26 10:56:45;;;;;;;8.90;4.17;;;;;;;4.36;86.93;102113.50;5083235;28;20396;-80
2020/12/26 10:59:10;;;;;;;12.47;4.13;;;;;;;4.36;87.12;102107.53;5093752;28;20261;-78
2020/12/26 11:01:35;;;;;;;8.93;4.33;;;;;;;4.42;87.87;102096.88;5097106;28;20030;-79
2020/12/26 11:04:01;;;;;;;11.23;3.53;;;;;;;4.47;86.99;102076.06;5091823;28;20276;-81
2020/12/26 11:06:26;;;;;;;12.00;4.47;;;;;;;4.53;87.47;102076.47;5092970;28;20063;-77
2020/12/26 11:08:51;;;;;;;12.43;4.07;;;;;;;4.71;87.12;102075.94;5100476;28;20032;-78
2020/12/26 11:11:17;;;;;;;14.02;4.07;;;;;;;4.76;86.23;102079.69;5104096;28;20273;-80
2020/12/26 11:13:42;;;;;;;9.30;3.40;;;;;;;5.15;85.86;102073.78;5117251;28;20019;-78
2020/12/26 11:16:11;;;;;;;13.60;3.47;;;;;;;5.68;81.92;102061.03;5084469;28;20024;-81
2020/12/26 11:18:37;;;;;;;8.57;3.60;;;;;;;5.71;81.60;102053.59;5083412;28;20269;-79
2020/12/26 11:21:02;;;;;;;14.25;4.45;;;;;;;5.57;81.91;102052.72;5080447;28;20104;-78
2020/12/26 11:23:27;;;;;;;7.65;3.58;;;;;;;5.36;82.48;102046.25;5106892;28;20023;-79
2020/12/26 11:25:52;;;;;;;8.77;3.60;;;;;;;4.89;84.03;102042.44;5099083;28;20249;-78
2020/12/26 11:28:18;;;;;;;11.20;3.73;;;;;;;4.82;84.87;102035.13;5101076;28;20118;-79
2020/12/26 11:30:43;;;;;;;9.20;3.57;;;;;;;4.70;85.31;102026.72;5094306;28;20766;-78
2020/12/26 11:33:08;;;;;;;6.13;2.97;;;;;;;4.61;85.15;102005.75;5095463;28;20059;-78